This is the latest recevied weather packets stored in our database for station/object KM5R. If no packets are shown the sender has not sent any weather packets the latest 1 day(s).
| Time | Temp. | Humidity | Pressure | Rain* | Wind** | Luminosity | Snow |
|---|---|---|---|---|---|---|---|
| 1778087060 | 11.11° C | 87% | 1016 hPa | 0 mm | - | 106 W/m² | - |
| 1778086759 | 11.11° C | 87% | 1016.1 hPa | 0 mm | - | 85 W/m² | - |
| 1778083424 | 11.67° C | 87% | 1014.3 hPa | 0 mm | - | 121 W/m² | - |
| 1778080783 | 11.11° C | 85% | 1014.8 hPa | 3.05 mm | - | 36 W/m² | - |
| 1778080178 | 11.11° C | 85% | 1015.3 hPa | 0 mm | - | 25 W/m² | - |
| 1778078965 | 11.11° C | 84% | 1015.7 hPa | 0 mm | - | 15 W/m² | - |
| 1778076848 | 12.22° C | 81% | 1016 hPa | 0 mm | - | 9 W/m² | - |
| 1778076546 | 12.78° C | 81% | 1016.4 hPa | 0 mm | - | 6 W/m² | - |
| 1778075636 | 12.78° C | 81% | 1015.8 hPa | 0 mm | - | 8 W/m² | - |
| 1778075029 | 13.33° C | 82% | 1015.1 hPa | 0 mm | - | 10 W/m² | - |
| 1778072908 | 13.89° C | 82% | 1014 hPa | 0 mm | - | 16 W/m² | - |
| 1778072302 | 13.89° C | 82% | 1013.8 hPa | 0 mm | - | 18 W/m² | - |
| 1778071395 | 14.44° C | 81% | 1013.4 hPa | 0 mm | - | 16 W/m² | - |
| 1778068672 | 15° C | 79% | 1012.8 hPa | 0 mm | - | 2 W/m² | - |
| 1778068370 | 15° C | 79% | 1012.9 hPa | 0 mm | - | 2 W/m² | - |
| 1778067765 | 15.56° C | 79% | 1012.8 hPa | 0 mm | - | 1 W/m² | - |
| 1778065950 | 15.56° C | 79% | 1012.6 hPa | 0 mm | - | 0 W/m² | - |
| 1778065646 | 15.56° C | 79% | 1012.5 hPa | 0 mm | - | 0 W/m² | - |
| 1778065344 | 15.56° C | 79% | 1012.7 hPa | 0 mm | - | 0 W/m² | - |
| 1778065040 | 15.56° C | 79% | 1012.2 hPa | 0 mm | - | 0 W/m² | - |
| 1778064737 | 15.56° C | 78% | 1012.3 hPa | 0 mm | - | 0 W/m² | - |
| 1778061410 | 16.11° C | 78% | 1011.6 hPa | 0 mm | - | 0 W/m² | - |
| 1778061106 | 16.67° C | 78% | 1011.6 hPa | 0 mm | - | 0 W/m² | - |
| 1778060501 | 16.67° C | 78% | 1011.4 hPa | 0 mm | - | 0 W/m² | - |
| 1778059291 | 17.22° C | 78% | 1011.1 hPa | 0 mm | - | 0 W/m² | - |
* Rain latest hour (hover to see other rain measurements)
** Current wind speed in m/s (hover to see current wind gust speed)